sensor_id;sensor_type;location;lat;lon;timestamp;P1;durP1;ratioP1;P2;durP2;ratioP2
69714;SDS011;56981;53.532;49.398;2023-04-08T00:00:43;18.63;;;6.75;;
69714;SDS011;56981;53.532;49.398;2023-04-08T00:03:10;12.95;;;5.95;;
69714;SDS011;56981;53.532;49.398;2023-04-08T00:05:36;14.13;;;5.93;;
69714;SDS011;56981;53.532;49.398;2023-04-08T00:08:02;15.13;;;6.88;;
69714;SDS011;56981;53.532;49.398;2023-04-08T00:10:28;16.75;;;6.97;;
69714;SDS011;56981;53.532;49.398;2023-04-08T00:12:54;15.65;;;6.65;;
69714;SDS011;56981;53.532;49.398;2023-04-08T00:15:20;15.23;;;6.35;;
69714;SDS011;56981;53.532;49.398;2023-04-08T00:17:47;23.75;;;7.60;;
69714;SDS011;56981;53.532;49.398;2023-04-08T00:20:13;20.73;;;8.13;;
69714;SDS011;56981;53.532;49.398;2023-04-08T00:22:40;16.95;;;7.38;;
69714;SDS011;56981;53.532;49.398;2023-04-08T00:25:06;18.83;;;7.40;;
69714;SDS011;56981;53.532;49.398;2023-04-08T00:27:33;20.98;;;8.32;;
69714;SDS011;56981;53.532;49.398;2023-04-08T00:30:00;21.95;;;8.55;;
69714;SDS011;56981;53.532;49.398;2023-04-08T00:32:26;18.90;;;7.32;;
69714;SDS011;56981;53.532;49.398;2023-04-08T00:34:53;23.20;;;7.60;;
69714;SDS011;56981;53.532;49.398;2023-04-08T00:37:20;20.42;;;8.02;;
69714;SDS011;56981;53.532;49.398;2023-04-08T00:39:46;15.77;;;7.93;;
69714;SDS011;56981;53.532;49.398;2023-04-08T00:42:12;21.02;;;8.93;;
69714;SDS011;56981;53.532;49.398;2023-04-08T00:44:38;20.50;;;7.93;;
69714;SDS011;56981;53.532;49.398;2023-04-08T00:47:04;20.20;;;7.47;;
69714;SDS011;56981;53.532;49.398;2023-04-08T00:49:30;16.23;;;8.50;;
69714;SDS011;56981;53.532;49.398;2023-04-08T00:51:57;19.75;;;8.15;;
69714;SDS011;56981;53.532;49.398;2023-04-08T00:54:24;15.30;;;6.03;;
69714;SDS011;56981;53.532;49.398;2023-04-08T00:56:51;19.42;;;7.68;;
69714;SDS011;56981;53.532;49.398;2023-04-08T00:59:17;24.13;;;7.93;;
69714;SDS011;56981;53.532;49.398;2023-04-08T01:01:46;17.65;;;8.30;;
69714;SDS011;56981;53.532;49.398;2023-04-08T01:09:48;19.38;;;8.98;;
69714;SDS011;56981;53.532;49.398;2023-04-08T01:14:54;21.92;;;8.73;;
69714;SDS011;56981;53.532;49.398;2023-04-08T01:17:31;26.02;;;10.05;;
69714;SDS011;56981;53.532;49.398;2023-04-08T01:19:59;26.20;;;10.57;;
69714;SDS011;56981;53.532;49.398;2023-04-08T01:25:26;34.92;;;10.25;;
69714;SDS011;56981;53.532;49.398;2023-04-08T01:27:57;23.45;;;9.38;;
69714;SDS011;56981;53.532;49.398;2023-04-08T01:30:25;25.58;;;8.90;;
69714;SDS011;56981;53.532;49.398;2023-04-08T01:32:53;31.08;;;9.00;;
69714;SDS011;56981;53.532;49.398;2023-04-08T01:35:21;30.02;;;8.73;;
69714;SDS011;56981;53.532;49.398;2023-04-08T01:37:48;18.17;;;6.45;;
69714;SDS011;56981;53.532;49.398;2023-04-08T01:40:16;19.25;;;7.38;;
69714;SDS011;56981;53.532;49.398;2023-04-08T01:42:47;17.02;;;6.95;;
69714;SDS011;56981;53.532;49.398;2023-04-08T01:45:15;18.80;;;6.70;;
69714;SDS011;56981;53.532;49.398;2023-04-08T01:47:42;14.40;;;5.85;;
69714;SDS011;56981;53.532;49.398;2023-04-08T01:50:11;18.80;;;6.20;;
69714;SDS011;56981;53.532;49.398;2023-04-08T01:52:39;18.65;;;5.85;;
69714;SDS011;56981;53.532;49.398;2023-04-08T01:55:07;21.27;;;7.75;;
69714;SDS011;56981;53.532;49.398;2023-04-08T01:57:35;21.88;;;6.35;;
69714;SDS011;56981;53.532;49.398;2023-04-08T02:00:09;14.90;;;5.88;;
69714;SDS011;56981;53.532;49.398;2023-04-08T02:02:37;21.50;;;5.90;;
69714;SDS011;56981;53.532;49.398;2023-04-08T02:05:07;13.55;;;6.03;;
69714;SDS011;56981;53.532;49.398;2023-04-08T02:07:33;12.32;;;5.75;;
69714;SDS011;56981;53.532;49.398;2023-04-08T02:09:59;15.63;;;6.70;;
69714;SDS011;56981;53.532;49.398;2023-04-08T02:12:25;11.20;;;4.97;;
69714;SDS011;56981;53.532;49.398;2023-04-08T02:14:52;10.07;;;4.32;;
69714;SDS011;56981;53.532;49.398;2023-04-08T02:17:24;16.80;;;6.10;;
69714;SDS011;56981;53.532;49.398;2023-04-08T02:20:13;16.85;;;5.47;;
69714;SDS011;56981;53.532;49.398;2023-04-08T02:25:20;13.90;;;6.13;;
69714;SDS011;56981;53.532;49.398;2023-04-08T02:27:48;16.55;;;6.95;;
69714;SDS011;56981;53.532;49.398;2023-04-08T02:30:16;16.90;;;7.28;;
69714;SDS011;56981;53.532;49.398;2023-04-08T02:32:44;16.30;;;6.25;;
69714;SDS011;56981;53.532;49.398;2023-04-08T02:35:12;15.38;;;6.30;;
69714;SDS011;56981;53.532;49.398;2023-04-08T02:37:40;20.95;;;7.40;;
69714;SDS011;56981;53.532;49.398;2023-04-08T02:40:25;16.67;;;5.68;;
69714;SDS011;56981;53.532;49.398;2023-04-08T02:42:53;9.68;;;5.00;;
69714;SDS011;56981;53.532;49.398;2023-04-08T02:45:20;12.82;;;5.07;;
69714;SDS011;56981;53.532;49.398;2023-04-08T02:47:46;8.32;;;4.80;;
69714;SDS011;56981;53.532;49.398;2023-04-08T02:50:12;11.55;;;4.95;;
69714;SDS011;56981;53.532;49.398;2023-04-08T02:52:38;12.50;;;5.45;;
69714;SDS011;56981;53.532;49.398;2023-04-08T02:55:05;13.93;;;6.32;;
69714;SDS011;56981;53.532;49.398;2023-04-08T02:57:35;11.73;;;5.65;;
69714;SDS011;56981;53.532;49.398;2023-04-08T03:00:02;15.10;;;5.32;;
69714;SDS011;56981;53.532;49.398;2023-04-08T03:02:29;12.02;;;5.32;;
69714;SDS011;56981;53.532;49.398;2023-04-08T03:04:56;10.60;;;5.45;;
69714;SDS011;56981;53.532;49.398;2023-04-08T03:07:22;10.90;;;5.35;;
69714;SDS011;56981;53.532;49.398;2023-04-08T03:09:49;9.23;;;5.30;;
69714;SDS011;56981;53.532;49.398;2023-04-08T03:12:15;10.90;;;5.32;;
69714;SDS011;56981;53.532;49.398;2023-04-08T03:14:42;9.30;;;4.93;;
69714;SDS011;56981;53.532;49.398;2023-04-08T03:17:08;6.75;;;4.57;;
69714;SDS011;56981;53.532;49.398;2023-04-08T03:19:34;5.53;;;3.70;;
69714;SDS011;56981;53.532;49.398;2023-04-08T03:22:00;5.15;;;3.38;;
69714;SDS011;56981;53.532;49.398;2023-04-08T03:24:26;5.05;;;3.00;;
69714;SDS011;56981;53.532;49.398;2023-04-08T03:26:52;3.58;;;2.90;;
69714;SDS011;56981;53.532;49.398;2023-04-08T03:29:18;3.92;;;2.80;;
69714;SDS011;56981;53.532;49.398;2023-04-08T03:31:44;5.25;;;3.50;;
69714;SDS011;56981;53.532;49.398;2023-04-08T03:34:10;3.35;;;3.05;;
69714;SDS011;56981;53.532;49.398;2023-04-08T03:36:36;5.35;;;3.20;;
69714;SDS011;56981;53.532;49.398;2023-04-08T03:39:02;6.57;;;3.38;;
69714;SDS011;56981;53.532;49.398;2023-04-08T03:41:28;4.93;;;2.80;;
69714;SDS011;56981;53.532;49.398;2023-04-08T03:43:55;5.30;;;2.90;;
69714;SDS011;56981;53.532;49.398;2023-04-08T03:46:21;5.38;;;2.67;;
69714;SDS011;56981;53.532;49.398;2023-04-08T03:48:47;5.00;;;2.65;;
69714;SDS011;56981;53.532;49.398;2023-04-08T03:51:13;3.90;;;3.22;;
69714;SDS011;56981;53.532;49.398;2023-04-08T03:53:39;5.15;;;3.00;;
69714;SDS011;56981;53.532;49.398;2023-04-08T03:56:06;3.75;;;2.92;;
69714;SDS011;56981;53.532;49.398;2023-04-08T03:58:32;3.95;;;2.35;;
69714;SDS011;56981;53.532;49.398;2023-04-08T04:00:58;3.00;;;2.78;;
69714;SDS011;56981;53.532;49.398;2023-04-08T04:03:24;4.78;;;2.45;;
69714;SDS011;56981;53.532;49.398;2023-04-08T04:05:51;4.95;;;2.88;;
69714;SDS011;56981;53.532;49.398;2023-04-08T04:08:18;3.80;;;2.53;;
69714;SDS011;56981;53.532;49.398;2023-04-08T04:10:44;3.25;;;2.42;;
69714;SDS011;56981;53.532;49.398;2023-04-08T04:13:10;3.38;;;2.78;;
69714;SDS011;56981;53.532;49.398;2023-04-08T04:15:37;3.70;;;2.67;;
69714;SDS011;56981;53.532;49.398;2023-04-08T04:18:04;4.32;;;2.72;;
69714;SDS011;56981;53.532;49.398;2023-04-08T04:20:31;3.90;;;2.58;;
69714;SDS011;56981;53.532;49.398;2023-04-08T04:22:57;2.35;;;2.15;;
69714;SDS011;56981;53.532;49.398;2023-04-08T04:25:23;5.00;;;2.80;;
69714;SDS011;56981;53.532;49.398;2023-04-08T04:27:49;5.53;;;2.50;;
69714;SDS011;56981;53.532;49.398;2023-04-08T04:30:15;2.45;;;2.10;;
69714;SDS011;56981;53.532;49.398;2023-04-08T04:32:44;3.90;;;2.45;;
69714;SDS011;56981;53.532;49.398;2023-04-08T04:35:10;3.83;;;2.13;;
69714;SDS011;56981;53.532;49.398;2023-04-08T04:37:37;6.05;;;2.20;;
69714;SDS011;56981;53.532;49.398;2023-04-08T04:40:04;3.47;;;2.38;;
69714;SDS011;56981;53.532;49.398;2023-04-08T04:42:30;3.35;;;2.22;;
69714;SDS011;56981;53.532;49.398;2023-04-08T04:44:57;5.72;;;2.60;;
69714;SDS011;56981;53.532;49.398;2023-04-08T04:47:24;5.30;;;2.92;;
69714;SDS011;56981;53.532;49.398;2023-04-08T04:49:51;3.70;;;2.35;;
69714;SDS011;56981;53.532;49.398;2023-04-08T04:52:17;1.60;;;1.35;;
69714;SDS011;56981;53.532;49.398;2023-04-08T04:54:43;2.55;;;2.35;;
69714;SDS011;56981;53.532;49.398;2023-04-08T04:57:10;2.35;;;1.85;;
69714;SDS011;56981;53.532;49.398;2023-04-08T04:59:36;2.05;;;1.95;;
69714;SDS011;56981;53.532;49.398;2023-04-08T05:02:02;2.13;;;1.92;;
69714;SDS011;56981;53.532;49.398;2023-04-08T05:04:28;3.38;;;2.08;;
69714;SDS011;56981;53.532;49.398;2023-04-08T05:06:54;3.08;;;2.08;;
69714;SDS011;56981;53.532;49.398;2023-04-08T05:09:24;3.60;;;2.03;;
69714;SDS011;56981;53.532;49.398;2023-04-08T05:11:50;3.30;;;1.95;;
69714;SDS011;56981;53.532;49.398;2023-04-08T05:14:16;1.95;;;1.80;;
69714;SDS011;56981;53.532;49.398;2023-04-08T05:16:43;2.28;;;1.80;;
69714;SDS011;56981;53.532;49.398;2023-04-08T05:19:09;5.63;;;2.30;;
69714;SDS011;56981;53.532;49.398;2023-04-08T05:21:35;4.22;;;2.53;;
69714;SDS011;56981;53.532;49.398;2023-04-08T05:24:02;2.53;;;2.30;;
69714;SDS011;56981;53.532;49.398;2023-04-08T05:26:32;5.53;;;2.55;;
69714;SDS011;56981;53.532;49.398;2023-04-08T05:28:58;2.50;;;2.30;;
69714;SDS011;56981;53.532;49.398;2023-04-08T05:31:24;2.95;;;2.45;;
69714;SDS011;56981;53.532;49.398;2023-04-08T05:33:50;2.83;;;2.28;;
69714;SDS011;56981;53.532;49.398;2023-04-08T05:36:16;3.75;;;2.58;;
69714;SDS011;56981;53.532;49.398;2023-04-08T05:38:42;3.67;;;2.58;;
69714;SDS011;56981;53.532;49.398;2023-04-08T05:41:09;2.92;;;2.58;;
69714;SDS011;56981;53.532;49.398;2023-04-08T05:43:35;5.47;;;3.10;;
69714;SDS011;56981;53.532;49.398;2023-04-08T05:46:05;4.07;;;2.72;;
69714;SDS011;56981;53.532;49.398;2023-04-08T05:48:32;5.03;;;3.10;;
69714;SDS011;56981;53.532;49.398;2023-04-08T05:50:59;4.97;;;2.80;;
69714;SDS011;56981;53.532;49.398;2023-04-08T05:53:25;5.55;;;3.45;;
69714;SDS011;56981;53.532;49.398;2023-04-08T05:55:52;7.95;;;4.32;;
69714;SDS011;56981;53.532;49.398;2023-04-08T05:58:18;4.50;;;3.20;;
69714;SDS011;56981;53.532;49.398;2023-04-08T06:00:44;4.72;;;3.22;;
69714;SDS011;56981;53.532;49.398;2023-04-08T06:03:12;6.38;;;3.22;;
69714;SDS011;56981;53.532;49.398;2023-04-08T06:05:38;4.53;;;3.50;;
69714;SDS011;56981;53.532;49.398;2023-04-08T06:08:05;4.00;;;3.15;;
69714;SDS011;56981;53.532;49.398;2023-04-08T06:10:31;4.53;;;3.03;;
69714;SDS011;56981;53.532;49.398;2023-04-08T06:12:57;3.90;;;3.38;;
69714;SDS011;56981;53.532;49.398;2023-04-08T06:15:24;7.38;;;3.60;;
69714;SDS011;56981;53.532;49.398;2023-04-08T06:17:50;4.20;;;3.17;;
69714;SDS011;56981;53.532;49.398;2023-04-08T06:20:16;8.85;;;3.30;;
69714;SDS011;56981;53.532;49.398;2023-04-08T06:22:42;4.82;;;3.20;;
69714;SDS011;56981;53.532;49.398;2023-04-08T06:25:08;6.22;;;2.83;;
69714;SDS011;56981;53.532;49.398;2023-04-08T06:27:35;3.25;;;2.63;;
69714;SDS011;56981;53.532;49.398;2023-04-08T06:30:01;5.43;;;2.80;;
69714;SDS011;56981;53.532;49.398;2023-04-08T06:32:27;5.10;;;2.35;;
69714;SDS011;56981;53.532;49.398;2023-04-08T06:34:53;5.10;;;2.60;;
69714;SDS011;56981;53.532;49.398;2023-04-08T06:37:30;6.40;;;2.95;;
69714;SDS011;56981;53.532;49.398;2023-04-08T06:39:56;6.38;;;3.15;;
69714;SDS011;56981;53.532;49.398;2023-04-08T06:42:22;2.88;;;2.13;;
69714;SDS011;56981;53.532;49.398;2023-04-08T06:44:48;2.78;;;2.30;;
69714;SDS011;56981;53.532;49.398;2023-04-08T06:47:15;81.93;;;6.80;;
69714;SDS011;56981;53.532;49.398;2023-04-08T06:49:41;3.15;;;2.40;;
69714;SDS011;56981;53.532;49.398;2023-04-08T06:52:07;5.80;;;2.75;;
69714;SDS011;56981;53.532;49.398;2023-04-08T06:54:33;5.00;;;3.38;;
69714;SDS011;56981;53.532;49.398;2023-04-08T06:57:00;5.82;;;3.00;;
69714;SDS011;56981;53.532;49.398;2023-04-08T06:59:26;3.72;;;2.30;;
69714;SDS011;56981;53.532;49.398;2023-04-08T07:01:52;5.18;;;2.35;;
69714;SDS011;56981;53.532;49.398;2023-04-08T07:04:19;3.42;;;2.40;;
69714;SDS011;56981;53.532;49.398;2023-04-08T07:06:45;3.25;;;2.20;;
69714;SDS011;56981;53.532;49.398;2023-04-08T07:09:11;5.40;;;2.60;;
69714;SDS011;56981;53.532;49.398;2023-04-08T07:11:37;6.32;;;4.28;;
69714;SDS011;56981;53.532;49.398;2023-04-08T07:14:03;4.10;;;1.52;;
69714;SDS011;56981;53.532;49.398;2023-04-08T07:16:30;4.75;;;2.22;;
69714;SDS011;56981;53.532;49.398;2023-04-08T07:18:56;4.63;;;2.45;;
69714;SDS011;56981;53.532;49.398;2023-04-08T07:21:22;2.38;;;2.20;;
69714;SDS011;56981;53.532;49.398;2023-04-08T07:23:48;6.00;;;2.30;;
69714;SDS011;56981;53.532;49.398;2023-04-08T07:26:14;3.95;;;2.75;;
69714;SDS011;56981;53.532;49.398;2023-04-08T07:28:41;4.35;;;2.60;;
69714;SDS011;56981;53.532;49.398;2023-04-08T07:31:11;2.88;;;2.65;;
69714;SDS011;56981;53.532;49.398;2023-04-08T07:33:41;11.90;;;3.85;;
69714;SDS011;56981;53.532;49.398;2023-04-08T07:36:08;6.13;;;4.22;;
69714;SDS011;56981;53.532;49.398;2023-04-08T07:38:36;3.97;;;2.80;;
69714;SDS011;56981;53.532;49.398;2023-04-08T07:41:03;3.75;;;2.55;;
69714;SDS011;56981;53.532;49.398;2023-04-08T07:43:32;4.25;;;2.13;;
69714;SDS011;56981;53.532;49.398;2023-04-08T07:45:59;4.22;;;2.63;;
69714;SDS011;56981;53.532;49.398;2023-04-08T07:48:29;6.38;;;3.50;;
69714;SDS011;56981;53.532;49.398;2023-04-08T07:50:56;2.80;;;1.85;;
69714;SDS011;56981;53.532;49.398;2023-04-08T07:53:23;3.95;;;2.75;;
69714;SDS011;56981;53.532;49.398;2023-04-08T07:55:52;5.03;;;2.67;;
69714;SDS011;56981;53.532;49.398;2023-04-08T07:58:18;8.70;;;3.40;;
69714;SDS011;56981;53.532;49.398;2023-04-08T08:00:47;6.55;;;2.42;;
69714;SDS011;56981;53.532;49.398;2023-04-08T08:03:13;4.07;;;2.67;;
69714;SDS011;56981;53.532;49.398;2023-04-08T08:05:40;3.53;;;3.20;;
69714;SDS011;56981;53.532;49.398;2023-04-08T08:08:09;8.55;;;3.25;;
69714;SDS011;56981;53.532;49.398;2023-04-08T08:10:38;5.90;;;3.50;;
69714;SDS011;56981;53.532;49.398;2023-04-08T08:13:04;2.85;;;2.55;;
69714;SDS011;56981;53.532;49.398;2023-04-08T08:15:31;5.10;;;3.38;;
69714;SDS011;56981;53.532;49.398;2023-04-08T08:17:57;6.50;;;5.78;;
69714;SDS011;56981;53.532;49.398;2023-04-08T08:20:23;4.85;;;3.35;;
69714;SDS011;56981;53.532;49.398;2023-04-08T08:22:52;5.70;;;2.88;;
69714;SDS011;56981;53.532;49.398;2023-04-08T08:25:18;2.90;;;2.38;;
69714;SDS011;56981;53.532;49.398;2023-04-08T08:27:44;4.40;;;2.78;;
69714;SDS011;56981;53.532;49.398;2023-04-08T08:30:10;6.20;;;3.08;;
69714;SDS011;56981;53.532;49.398;2023-04-08T08:32:36;5.07;;;2.83;;
69714;SDS011;56981;53.532;49.398;2023-04-08T08:35:02;4.97;;;3.33;;
69714;SDS011;56981;53.532;49.398;2023-04-08T08:37:29;10.50;;;3.92;;
69714;SDS011;56981;53.532;49.398;2023-04-08T08:39:55;5.88;;;2.65;;
69714;SDS011;56981;53.532;49.398;2023-04-08T08:42:22;6.05;;;3.83;;
69714;SDS011;56981;53.532;49.398;2023-04-08T08:44:49;3.58;;;2.33;;
69714;SDS011;56981;53.532;49.398;2023-04-08T08:47:16;6.53;;;2.42;;
69714;SDS011;56981;53.532;49.398;2023-04-08T08:49:42;6.55;;;3.00;;
69714;SDS011;56981;53.532;49.398;2023-04-08T08:52:10;5.50;;;2.75;;
69714;SDS011;56981;53.532;49.398;2023-04-08T08:54:40;6.65;;;2.67;;
69714;SDS011;56981;53.532;49.398;2023-04-08T08:57:15;4.47;;;2.10;;
69714;SDS011;56981;53.532;49.398;2023-04-08T08:59:47;4.10;;;1.85;;
69714;SDS011;56981;53.532;49.398;2023-04-08T09:02:29;3.22;;;2.33;;
69714;SDS011;56981;53.532;49.398;2023-04-08T09:05:00;4.07;;;2.35;;
69714;SDS011;56981;53.532;49.398;2023-04-08T09:07:29;3.60;;;2.30;;
69714;SDS011;56981;53.532;49.398;2023-04-08T09:09:57;3.70;;;2.60;;
69714;SDS011;56981;53.532;49.398;2023-04-08T09:12:24;5.82;;;2.50;;
69714;SDS011;56981;53.532;49.398;2023-04-08T09:15:02;2.33;;;2.13;;
69714;SDS011;56981;53.532;49.398;2023-04-08T09:17:34;1.60;;;1.50;;
69714;SDS011;56981;53.532;49.398;2023-04-08T09:20:05;2.72;;;1.90;;
69714;SDS011;56981;53.532;49.398;2023-04-08T09:25:23;5.70;;;2.60;;
69714;SDS011;56981;53.532;49.398;2023-04-08T09:27:51;5.82;;;2.78;;
69714;SDS011;56981;53.532;49.398;2023-04-08T09:30:19;6.38;;;2.58;;
69714;SDS011;56981;53.532;49.398;2023-04-08T09:32:51;1.83;;;1.60;;
69714;SDS011;56981;53.532;49.398;2023-04-08T09:35:19;2.38;;;1.80;;
69714;SDS011;56981;53.532;49.398;2023-04-08T09:37:45;5.90;;;2.78;;
69714;SDS011;56981;53.532;49.398;2023-04-08T09:40:12;12.10;;;6.18;;
69714;SDS011;56981;53.532;49.398;2023-04-08T09:42:43;8.38;;;4.32;;
69714;SDS011;56981;53.532;49.398;2023-04-08T09:45:11;12.77;;;5.15;;
69714;SDS011;56981;53.532;49.398;2023-04-08T09:47:41;9.93;;;4.75;;
69714;SDS011;56981;53.532;49.398;2023-04-08T09:50:17;10.80;;;5.28;;
69714;SDS011;56981;53.532;49.398;2023-04-08T09:52:46;5.63;;;2.45;;
69714;SDS011;56981;53.532;49.398;2023-04-08T09:55:21;7.07;;;3.08;;
69714;SDS011;56981;53.532;49.398;2023-04-08T09:57:54;7.63;;;2.88;;
69714;SDS011;56981;53.532;49.398;2023-04-08T10:00:31;6.80;;;2.88;;
69714;SDS011;56981;53.532;49.398;2023-04-08T10:03:09;3.97;;;2.45;;
69714;SDS011;56981;53.532;49.398;2023-04-08T10:05:45;6.25;;;2.60;;
69714;SDS011;56981;53.532;49.398;2023-04-08T10:08:11;4.25;;;2.58;;
69714;SDS011;56981;53.532;49.398;2023-04-08T10:10:44;3.25;;;2.50;;
69714;SDS011;56981;53.532;49.398;2023-04-08T10:13:11;5.07;;;3.22;;
69714;SDS011;56981;53.532;49.398;2023-04-08T10:15:37;7.97;;;3.58;;
69714;SDS011;56981;53.532;49.398;2023-04-08T10:25:43;2.88;;;2.33;;
69714;SDS011;56981;53.532;49.398;2023-04-08T10:30:52;4.70;;;2.90;;
69714;SDS011;56981;53.532;49.398;2023-04-08T10:33:23;5.18;;;2.88;;
69714;SDS011;56981;53.532;49.398;2023-04-08T10:36:08;3.83;;;2.05;;
69714;SDS011;56981;53.532;49.398;2023-04-08T10:38:36;3.00;;;2.25;;
69714;SDS011;56981;53.532;49.398;2023-04-08T10:41:09;4.20;;;2.22;;
69714;SDS011;56981;53.532;49.398;2023-04-08T10:43:38;2.55;;;2.00;;
69714;SDS011;56981;53.532;49.398;2023-04-08T10:46:04;2.63;;;2.40;;
69714;SDS011;56981;53.532;49.398;2023-04-08T10:48:31;3.17;;;1.80;;
69714;SDS011;56981;53.532;49.398;2023-04-08T10:50:58;3.00;;;2.00;;
69714;SDS011;56981;53.532;49.398;2023-04-08T10:53:29;5.85;;;2.72;;
69714;SDS011;56981;53.532;49.398;2023-04-08T10:56:07;6.32;;;3.20;;
69714;SDS011;56981;53.532;49.398;2023-04-08T10:58:49;1.88;;;1.48;;
69714;SDS011;56981;53.532;49.398;2023-04-08T11:01:17;2.17;;;1.52;;
69714;SDS011;56981;53.532;49.398;2023-04-08T11:03:43;4.68;;;1.92;;
69714;SDS011;56981;53.532;49.398;2023-04-08T11:06:10;3.35;;;1.80;;
69714;SDS011;56981;53.532;49.398;2023-04-08T11:08:36;4.65;;;2.78;;
69714;SDS011;56981;53.532;49.398;2023-04-08T11:11:06;4.65;;;2.47;;
69714;SDS011;56981;53.532;49.398;2023-04-08T11:13:37;4.55;;;2.40;;
69714;SDS011;56981;53.532;49.398;2023-04-08T11:16:05;5.00;;;1.95;;
69714;SDS011;56981;53.532;49.398;2023-04-08T11:18:36;5.80;;;2.30;;
69714;SDS011;56981;53.532;49.398;2023-04-08T11:21:03;6.60;;;2.30;;
69714;SDS011;56981;53.532;49.398;2023-04-08T11:23:34;3.15;;;2.20;;
69714;SDS011;56981;53.532;49.398;2023-04-08T11:26:00;6.22;;;2.03;;
69714;SDS011;56981;53.532;49.398;2023-04-08T11:28:27;9.00;;;2.53;;
69714;SDS011;56981;53.532;49.398;2023-04-08T11:30:54;5.18;;;2.85;;
69714;SDS011;56981;53.532;49.398;2023-04-08T11:33:20;8.05;;;3.35;;
69714;SDS011;56981;53.532;49.398;2023-04-08T11:35:49;8.15;;;3.10;;
69714;SDS011;56981;53.532;49.398;2023-04-08T11:38:16;4.30;;;2.17;;
69714;SDS011;56981;53.532;49.398;2023-04-08T11:40:53;4.10;;;2.63;;
69714;SDS011;56981;53.532;49.398;2023-04-08T11:43:20;2.72;;;2.03;;
69714;SDS011;56981;53.532;49.398;2023-04-08T11:45:47;2.95;;;2.35;;
69714;SDS011;56981;53.532;49.398;2023-04-08T11:48:14;6.00;;;2.30;;
69714;SDS011;56981;53.532;49.398;2023-04-08T11:50:41;2.03;;;1.67;;
69714;SDS011;56981;53.532;49.398;2023-04-08T11:53:15;4.82;;;2.28;;
69714;SDS011;56981;53.532;49.398;2023-04-08T11:55:45;5.65;;;2.47;;
69714;SDS011;56981;53.532;49.398;2023-04-08T11:58:12;3.22;;;2.10;;
69714;SDS011;56981;53.532;49.398;2023-04-08T12:00:38;3.17;;;1.70;;
69714;SDS011;56981;53.532;49.398;2023-04-08T12:03:04;5.30;;;2.40;;
69714;SDS011;56981;53.532;49.398;2023-04-08T12:05:31;3.15;;;1.90;;
69714;SDS011;56981;53.532;49.398;2023-04-08T12:07:57;3.47;;;2.10;;
69714;SDS011;56981;53.532;49.398;2023-04-08T12:10:23;3.00;;;2.05;;
69714;SDS011;56981;53.532;49.398;2023-04-08T12:12:50;3.50;;;1.88;;
69714;SDS011;56981;53.532;49.398;2023-04-08T12:15:16;4.28;;;2.38;;
69714;SDS011;56981;53.532;49.398;2023-04-08T12:17:43;6.65;;;2.67;;
69714;SDS011;56981;53.532;49.398;2023-04-08T12:20:09;4.25;;;2.20;;
69714;SDS011;56981;53.532;49.398;2023-04-08T12:22:38;4.55;;;2.83;;
69714;SDS011;56981;53.532;49.398;2023-04-08T12:25:04;5.20;;;2.10;;
69714;SDS011;56981;53.532;49.398;2023-04-08T12:27:31;5.28;;;2.33;;
69714;SDS011;56981;53.532;49.398;2023-04-08T12:29:58;8.88;;;4.05;;
69714;SDS011;56981;53.532;49.398;2023-04-08T12:32:24;2.58;;;1.80;;
69714;SDS011;56981;53.532;49.398;2023-04-08T12:34:50;3.25;;;1.63;;
69714;SDS011;56981;53.532;49.398;2023-04-08T12:37:17;8.60;;;3.75;;
69714;SDS011;56981;53.532;49.398;2023-04-08T12:39:43;13.80;;;7.10;;
69714;SDS011;56981;53.532;49.398;2023-04-08T12:42:08;43.65;;;15.60;;
69714;SDS011;56981;53.532;49.398;2023-04-08T12:44:34;24.67;;;7.82;;
69714;SDS011;56981;53.532;49.398;2023-04-08T12:47:00;2.70;;;1.85;;
69714;SDS011;56981;53.532;49.398;2023-04-08T12:49:26;10.10;;;5.25;;
69714;SDS011;56981;53.532;49.398;2023-04-08T12:51:52;6.45;;;3.92;;
69714;SDS011;56981;53.532;49.398;2023-04-08T12:54:19;7.43;;;3.90;;
69714;SDS011;56981;53.532;49.398;2023-04-08T12:56:46;8.55;;;4.75;;
69714;SDS011;56981;53.532;49.398;2023-04-08T12:59:13;8.70;;;3.97;;
69714;SDS011;56981;53.532;49.398;2023-04-08T13:01:39;5.82;;;3.10;;
69714;SDS011;56981;53.532;49.398;2023-04-08T13:04:06;2.58;;;2.17;;
69714;SDS011;56981;53.532;49.398;2023-04-08T13:06:32;2.60;;;2.15;;
69714;SDS011;56981;53.532;49.398;2023-04-08T13:08:58;3.30;;;1.90;;
69714;SDS011;56981;53.532;49.398;2023-04-08T13:11:25;4.18;;;1.90;;
69714;SDS011;56981;53.532;49.398;2023-04-08T13:13:51;4.53;;;2.53;;
69714;SDS011;56981;53.532;49.398;2023-04-08T13:16:17;3.72;;;2.15;;
69714;SDS011;56981;53.532;49.398;2023-04-08T13:18:44;2.42;;;2.00;;
69714;SDS011;56981;53.532;49.398;2023-04-08T13:21:11;18.90;;;3.05;;
69714;SDS011;56981;53.532;49.398;2023-04-08T13:23:37;17.35;;;7.60;;
69714;SDS011;56981;53.532;49.398;2023-04-08T13:26:03;5.50;;;2.97;;
69714;SDS011;56981;53.532;49.398;2023-04-08T13:28:29;7.10;;;3.97;;
69714;SDS011;56981;53.532;49.398;2023-04-08T13:30:55;12.43;;;6.75;;
69714;SDS011;56981;53.532;49.398;2023-04-08T13:33:24;5.13;;;2.83;;
69714;SDS011;56981;53.532;49.398;2023-04-08T13:35:51;3.03;;;2.50;;
69714;SDS011;56981;53.532;49.398;2023-04-08T13:38:17;5.97;;;2.75;;
69714;SDS011;56981;53.532;49.398;2023-04-08T13:40:45;6.75;;;3.10;;
69714;SDS011;56981;53.532;49.398;2023-04-08T13:43:12;7.55;;;3.78;;
69714;SDS011;56981;53.532;49.398;2023-04-08T13:45:39;4.47;;;3.17;;
69714;SDS011;56981;53.532;49.398;2023-04-08T13:48:05;3.95;;;2.60;;
69714;SDS011;56981;53.532;49.398;2023-04-08T13:50:32;5.20;;;2.97;;
69714;SDS011;56981;53.532;49.398;2023-04-08T13:52:58;5.72;;;3.40;;
69714;SDS011;56981;53.532;49.398;2023-04-08T13:55:27;7.82;;;2.80;;
69714;SDS011;56981;53.532;49.398;2023-04-08T13:58:03;4.88;;;2.83;;
69714;SDS011;56981;53.532;49.398;2023-04-08T14:00:53;6.35;;;3.85;;
69714;SDS011;56981;53.532;49.398;2023-04-08T14:03:23;9.57;;;5.15;;
69714;SDS011;56981;53.532;49.398;2023-04-08T14:06:28;7.72;;;5.45;;
69714;SDS011;56981;53.532;49.398;2023-04-08T14:08:55;15.25;;;8.50;;
69714;SDS011;56981;53.532;49.398;2023-04-08T14:11:24;12.25;;;5.72;;
69714;SDS011;56981;53.532;49.398;2023-04-08T14:13:50;21.58;;;12.38;;
69714;SDS011;56981;53.532;49.398;2023-04-08T14:16:16;16.05;;;5.35;;
69714;SDS011;56981;53.532;49.398;2023-04-08T14:18:59;11.82;;;6.45;;
69714;SDS011;56981;53.532;49.398;2023-04-08T14:21:43;6.10;;;3.40;;
69714;SDS011;56981;53.532;49.398;2023-04-08T14:24:16;10.80;;;3.88;;
69714;SDS011;56981;53.532;49.398;2023-04-08T14:26:43;12.70;;;4.57;;
69714;SDS011;56981;53.532;49.398;2023-04-08T14:29:11;8.07;;;3.58;;
69714;SDS011;56981;53.532;49.398;2023-04-08T14:31:46;8.00;;;4.38;;
69714;SDS011;56981;53.532;49.398;2023-04-08T14:34:24;11.77;;;5.78;;
69714;SDS011;56981;53.532;49.398;2023-04-08T14:43:46;7.85;;;4.93;;
69714;SDS011;56981;53.532;49.398;2023-04-08T14:46:58;5.43;;;3.05;;
69714;SDS011;56981;53.532;49.398;2023-04-08T14:52:52;7.15;;;3.35;;
69714;SDS011;56981;53.532;49.398;2023-04-08T14:55:23;11.20;;;4.72;;
69714;SDS011;56981;53.532;49.398;2023-04-08T14:57:57;7.60;;;4.05;;
69714;SDS011;56981;53.532;49.398;2023-04-08T15:00:48;6.80;;;3.80;;
69714;SDS011;56981;53.532;49.398;2023-04-08T15:03:16;7.50;;;4.20;;
69714;SDS011;56981;53.532;49.398;2023-04-08T15:05:44;8.35;;;3.55;;
69714;SDS011;56981;53.532;49.398;2023-04-08T15:08:57;8.60;;;4.10;;
69714;SDS011;56981;53.532;49.398;2023-04-08T15:11:26;10.63;;;5.43;;
69714;SDS011;56981;53.532;49.398;2023-04-08T15:17:13;13.80;;;5.82;;